createdAt,value
2018-06-25T00:01:06.941Z,4.90
2018-06-25T00:03:36.033Z,4.23
2018-06-25T00:06:05.179Z,4.67
2018-06-25T00:08:34.273Z,4.90
2018-06-25T00:11:03.344Z,4.37
2018-06-25T00:13:32.432Z,4.70
2018-06-25T00:16:01.509Z,5.07
2018-06-25T00:18:30.600Z,5.27
2018-06-25T00:20:59.700Z,4.60
2018-06-25T00:23:28.799Z,5.03
2018-06-25T00:25:57.880Z,5.63
2018-06-25T00:28:26.947Z,5.37
2018-06-25T00:30:56.045Z,6.40
2018-06-25T00:33:25.135Z,6.80
2018-06-25T00:35:54.224Z,6.23
2018-06-25T00:38:23.300Z,6.60
2018-06-25T00:40:52.393Z,6.10
2018-06-25T00:43:21.455Z,7.00
2018-06-25T00:45:50.557Z,7.50
2018-06-25T00:48:19.627Z,6.10
2018-06-25T00:50:48.788Z,6.67
2018-06-25T00:53:17.860Z,6.83
2018-06-25T00:55:46.951Z,5.87
2018-06-25T00:58:16.024Z,6.47
2018-06-25T01:00:45.120Z,7.70
2018-06-25T01:03:14.192Z,7.70
2018-06-25T01:05:43.288Z,7.30
2018-06-25T01:08:12.355Z,7.20
2018-06-25T01:10:41.452Z,7.00
2018-06-25T01:13:10.524Z,7.57
2018-06-25T01:15:39.635Z,8.10
2018-06-25T01:18:08.708Z,8.43
2018-06-25T01:20:37.869Z,8.73
2018-06-25T01:23:06.945Z,8.00
2018-06-25T01:25:36.041Z,8.20
2018-06-25T01:28:05.416Z,7.50
2018-06-25T01:30:34.512Z,8.70
2018-06-25T01:33:03.592Z,8.40
2018-06-25T01:35:32.681Z,7.50
2018-06-25T01:38:01.757Z,7.13
2018-06-25T01:40:30.892Z,7.80
2018-06-25T01:42:59.969Z,8.70
2018-06-25T01:45:29.076Z,8.43
2018-06-25T01:47:58.146Z,8.10
2018-06-25T01:50:27.444Z,8.70
2018-06-25T01:52:56.560Z,8.40
2018-06-25T01:55:25.632Z,7.90
2018-06-25T01:57:54.727Z,8.20
2018-06-25T02:00:23.803Z,9.33
2018-06-25T02:02:52.893Z,8.63
2018-06-25T02:05:21.964Z,8.70
2018-06-25T02:07:51.065Z,9.33
2018-06-25T02:10:20.148Z,8.40
2018-06-25T02:12:49.243Z,8.97
2018-06-25T02:15:18.332Z,9.17
2018-06-25T02:17:47.424Z,8.80
2018-06-25T02:20:16.496Z,9.67
2018-06-25T02:22:51.925Z,8.93
2018-06-25T02:25:20.995Z,8.40
2018-06-25T02:27:50.088Z,8.60
2018-06-25T02:30:19.169Z,8.93
2018-06-25T02:32:48.257Z,8.30
2018-06-25T02:35:17.337Z,8.33
2018-06-25T02:37:46.433Z,9.77
2018-06-25T02:40:15.512Z,9.27
2018-06-25T02:42:44.613Z,9.20
2018-06-25T02:45:13.684Z,8.70
2018-06-25T02:47:42.781Z,9.90
2018-06-25T02:50:11.853Z,9.47
2018-06-25T02:52:40.968Z,9.43
2018-06-25T02:55:10.053Z,9.83
2018-06-25T02:57:39.144Z,8.97
2018-06-25T03:00:08.223Z,10.37
2018-06-25T03:02:37.332Z,9.47
2018-06-25T03:05:06.421Z,10.00
2018-06-25T03:07:35.493Z,10.30
2018-06-25T03:10:04.626Z,11.13
2018-06-25T03:12:33.701Z,8.70
2018-06-25T03:15:02.798Z,9.80
2018-06-25T03:17:31.868Z,10.70
2018-06-25T03:20:00.964Z,9.90
2018-06-25T03:22:30.036Z,9.87
2018-06-25T03:24:59.139Z,9.90
2018-06-25T03:27:28.219Z,9.20
2018-06-25T03:29:57.320Z,9.40
2018-06-25T03:32:26.407Z,8.90
2018-06-25T03:34:55.505Z,9.73
2018-06-25T03:37:24.596Z,9.90
2018-06-25T03:39:53.704Z,10.30
2018-06-25T03:42:22.804Z,10.10
2018-06-25T03:44:51.909Z,9.87
2018-06-25T03:47:20.985Z,9.10
2018-06-25T03:49:50.600Z,9.10
2018-06-25T03:52:19.704Z,10.00
2018-06-25T03:54:48.804Z,10.23
2018-06-25T03:57:17.885Z,9.60
2018-06-25T03:59:46.987Z,11.37
2018-06-25T04:02:16.068Z,10.70
2018-06-25T04:04:45.177Z,9.90
2018-06-25T04:07:14.256Z,9.93
2018-06-25T04:09:43.375Z,11.12
2018-06-25T04:12:12.511Z,9.97
2018-06-25T04:18:49.520Z,10.55
2018-06-25T04:21:19.642Z,10.43
2018-06-25T04:23:48.751Z,11.37
2018-06-25T04:26:17.853Z,11.00
2018-06-25T04:28:46.944Z,10.63
2018-06-25T04:31:16.057Z,10.67
2018-06-25T04:33:45.839Z,11.00
2018-06-25T04:36:14.941Z,11.47
2018-06-25T04:38:44.450Z,11.83
2018-06-25T04:41:13.901Z,12.07
2018-06-25T04:43:43.481Z,10.77
2018-06-25T04:46:12.912Z,11.40
2018-06-25T04:48:42.285Z,11.40
2018-06-25T04:51:11.417Z,10.30
2018-06-25T04:53:41.364Z,11.37
2018-06-25T04:56:11.105Z,11.30
2018-06-25T04:58:40.208Z,11.47
2018-06-25T05:01:09.300Z,11.00
2018-06-25T05:03:38.911Z,11.53
2018-06-25T05:06:08.003Z,13.53
2018-06-25T05:08:37.101Z,11.55
2018-06-25T05:11:06.177Z,11.25
2018-06-25T05:13:35.276Z,12.53
2018-06-25T05:16:04.380Z,10.70
2018-06-25T05:18:33.629Z,12.50
2018-06-25T05:21:02.780Z,12.03
2018-06-25T05:23:31.856Z,13.20
2018-06-25T05:26:00.928Z,12.63
2018-06-25T05:28:30.038Z,13.43
2018-06-25T05:30:59.112Z,12.85
2018-06-25T05:33:28.220Z,12.70
2018-06-25T05:35:57.297Z,13.38
2018-06-25T05:38:26.391Z,13.83
2018-06-25T05:40:55.485Z,13.87
2018-06-25T05:43:25.013Z,12.90
2018-06-25T05:45:54.087Z,14.30
2018-06-25T05:48:23.196Z,13.07
2018-06-25T05:50:52.268Z,13.07
2018-06-25T05:53:21.464Z,13.98
2018-06-25T05:55:50.552Z,13.40
2018-06-25T05:58:19.668Z,13.55
2018-06-25T06:00:48.768Z,13.83
2018-06-25T06:03:17.889Z,13.63
2018-06-25T06:05:47.005Z,12.80
2018-06-25T06:08:16.148Z,12.97
2018-06-25T06:10:45.252Z,13.30
2018-06-25T06:13:14.391Z,13.50
2018-06-25T06:15:43.494Z,13.25
2018-06-25T06:18:12.595Z,13.13
2018-06-25T06:20:41.712Z,12.60
2018-06-25T06:23:10.804Z,12.60
2018-06-25T06:25:39.940Z,13.53
2018-06-25T06:28:09.049Z,12.97
2018-06-25T06:30:38.176Z,12.53
2018-06-25T06:33:07.273Z,14.43
2018-06-25T06:35:36.388Z,12.63
2018-06-25T06:38:05.811Z,12.35
2018-06-25T06:40:34.953Z,11.20
2018-06-25T06:43:04.195Z,11.45
2018-06-25T06:45:33.308Z,13.10
2018-06-25T06:48:02.409Z,12.25
2018-06-25T06:50:31.523Z,9.93
2018-06-25T06:53:00.668Z,10.67
2018-06-25T06:55:29.821Z,10.13
2018-06-25T06:57:58.938Z,8.30
2018-06-25T07:00:28.037Z,7.20
2018-06-25T07:02:57.116Z,6.40
2018-06-25T07:05:26.236Z,6.95
2018-06-25T07:07:55.321Z,7.35
2018-06-25T07:10:24.449Z,6.35
2018-06-25T07:12:53.505Z,6.22
2018-06-25T07:15:22.599Z,6.87
2018-06-25T07:17:51.676Z,6.60
2018-06-25T07:20:20.776Z,6.33
2018-06-25T07:22:49.852Z,7.13
2018-06-25T07:25:18.953Z,7.00
2018-06-25T07:27:48.042Z,6.72
2018-06-25T07:30:17.140Z,7.60
2018-06-25T07:32:46.224Z,9.37
2018-06-25T07:35:15.339Z,7.97
2018-06-25T07:37:44.424Z,8.03
2018-06-25T07:40:13.540Z,7.47
2018-06-25T07:42:42.620Z,8.03
2018-06-25T07:45:11.753Z,8.80
2018-06-25T07:47:40.853Z,8.00
2018-06-25T07:50:09.919Z,6.70
2018-06-25T07:52:39.045Z,8.58
2018-06-25T07:55:08.124Z,7.70
2018-06-25T07:57:37.224Z,7.70
2018-06-25T08:00:06.617Z,8.10
2018-06-25T08:02:35.735Z,7.43
2018-06-25T08:05:04.922Z,9.37
2018-06-25T08:07:34.031Z,7.50
2018-06-25T08:10:03.181Z,7.60
2018-06-25T08:12:32.228Z,10.80
2018-06-25T08:15:01.309Z,7.70
2018-06-25T08:17:30.428Z,7.90
2018-06-25T08:19:59.503Z,8.50
2018-06-25T08:22:28.610Z,7.50
2018-06-25T08:24:57.701Z,7.97
2018-06-25T08:27:26.804Z,9.00
2018-06-25T08:29:55.933Z,7.73
2018-06-25T08:32:24.991Z,7.97
2018-06-25T08:34:54.082Z,7.83
2018-06-25T08:37:23.193Z,7.30
2018-06-25T08:39:52.280Z,7.50
2018-06-25T08:42:21.399Z,7.62
2018-06-25T08:44:50.487Z,8.65
2018-06-25T08:47:19.600Z,8.70
2018-06-25T08:49:48.691Z,7.55
2018-06-25T08:52:17.852Z,9.30
2018-06-25T08:54:47.981Z,8.46
2018-06-25T08:57:17.416Z,8.50
2018-06-25T08:59:46.485Z,7.33
2018-06-25T09:02:15.556Z,7.57
2018-06-25T09:04:44.655Z,7.77
2018-06-25T09:07:13.740Z,6.30
2018-06-25T09:09:42.830Z,6.50
2018-06-25T09:12:11.900Z,6.70
2018-06-25T09:14:40.992Z,8.00
2018-06-25T09:17:10.061Z,7.10
2018-06-25T09:19:39.155Z,7.00
2018-06-25T09:22:08.236Z,7.50
2018-06-25T09:24:37.320Z,8.00
2018-06-25T09:27:06.432Z,7.90
2018-06-25T09:29:35.516Z,8.70
2018-06-25T09:32:04.590Z,9.03
2018-06-25T09:34:39.635Z,9.43
2018-06-25T09:37:08.753Z,9.58
2018-06-25T09:39:37.844Z,9.95
2018-06-25T09:42:07.000Z,9.78
2018-06-25T09:44:36.105Z,8.97
2018-06-25T09:47:05.192Z,9.40
2018-06-25T09:49:34.736Z,8.93
2018-06-25T09:52:04.438Z,8.80
2018-06-25T09:54:40.177Z,7.00
2018-06-25T09:57:09.218Z,6.03
2018-06-25T09:59:38.319Z,6.67
2018-06-25T10:02:07.404Z,6.23
2018-06-25T10:04:36.507Z,5.73
2018-06-25T10:07:05.739Z,5.33
2018-06-25T10:09:34.852Z,5.53
2018-06-25T10:12:03.955Z,5.72
2018-06-25T10:14:33.032Z,5.33
2018-06-25T10:17:02.141Z,5.73
2018-06-25T10:19:31.228Z,5.20
2018-06-25T10:22:00.340Z,5.00
2018-06-25T10:24:29.456Z,5.40
2018-06-25T10:26:58.572Z,4.70
2018-06-25T10:29:27.668Z,5.75
2018-06-25T10:31:56.772Z,5.07
2018-06-25T10:34:25.864Z,5.10
2018-06-25T10:36:54.984Z,4.63
2018-06-25T10:39:24.113Z,5.08
2018-06-25T10:41:53.216Z,5.13
2018-06-25T10:44:23.285Z,4.80
2018-06-25T10:46:52.427Z,5.10
2018-06-25T10:49:21.507Z,6.03
2018-06-25T10:51:50.629Z,5.53
2018-06-25T10:54:19.714Z,5.20
2018-06-25T10:56:48.800Z,5.20
2018-06-25T10:59:17.919Z,5.80
2018-06-25T11:01:47.008Z,4.83
2018-06-25T11:04:16.075Z,4.30
2018-06-25T11:06:45.176Z,4.60
2018-06-25T11:09:14.256Z,4.60
2018-06-25T11:11:43.408Z,5.03
2018-06-25T11:14:12.484Z,5.10
2018-06-25T11:16:41.572Z,5.07
2018-06-25T11:19:10.636Z,5.30
2018-06-25T11:21:39.751Z,4.17
2018-06-25T11:24:08.820Z,5.20
2018-06-25T11:26:38.133Z,4.30
2018-06-25T11:29:07.255Z,4.90
2018-06-25T11:31:36.319Z,4.73
2018-06-25T11:34:05.419Z,5.13
2018-06-25T11:36:34.496Z,5.00
2018-06-25T11:39:04.857Z,5.00
2018-06-25T11:41:33.936Z,4.67
2018-06-25T11:44:03.057Z,4.17
2018-06-25T11:46:32.136Z,5.60
2018-06-25T11:49:01.224Z,4.40
2018-06-25T11:51:30.328Z,4.30
2018-06-25T11:53:59.424Z,6.97
2018-06-25T11:56:28.515Z,7.17
2018-06-25T11:58:57.620Z,5.10
2018-06-25T12:01:26.720Z,5.63
2018-06-25T12:03:55.810Z,4.77
2018-06-25T12:06:24.872Z,5.73
2018-06-25T12:08:53.981Z,5.77
2018-06-25T12:11:23.063Z,3.80
2018-06-25T12:13:52.164Z,4.40
2018-06-25T12:16:21.229Z,5.40
2018-06-25T12:18:50.314Z,4.60
2018-06-25T12:21:19.398Z,5.10
2018-06-25T12:23:48.492Z,4.30
2018-06-25T12:26:17.557Z,4.70
2018-06-25T12:28:46.685Z,4.90
2018-06-25T12:31:15.799Z,4.73
2018-06-25T12:33:44.892Z,4.00
2018-06-25T12:36:14.028Z,5.07
2018-06-25T12:38:43.275Z,4.23
2018-06-25T12:41:12.404Z,4.33
2018-06-25T12:43:41.507Z,5.03
2018-06-25T12:46:10.705Z,5.05
2018-06-25T12:48:39.856Z,5.00
2018-06-25T12:51:08.953Z,4.77
2018-06-25T12:53:38.056Z,4.92
2018-06-25T12:56:07.156Z,5.07
2018-06-25T12:58:36.227Z,5.17
2018-06-25T13:01:05.428Z,5.70
2018-06-25T13:03:34.533Z,5.77
2018-06-25T13:06:03.724Z,5.53
2018-06-25T13:08:32.965Z,5.03
2018-06-25T13:11:02.192Z,5.28
2018-06-25T13:13:31.277Z,4.47
2018-06-25T13:16:00.387Z,4.53
2018-06-25T13:18:29.481Z,4.70
2018-06-25T13:20:58.580Z,5.30
2018-06-25T13:23:27.679Z,3.90
2018-06-25T13:25:56.833Z,4.63
2018-06-25T13:28:25.896Z,4.70
2018-06-25T13:30:54.999Z,4.67
2018-06-25T13:33:24.105Z,4.63
2018-06-25T13:35:53.188Z,4.22
2018-06-25T13:38:22.393Z,4.50
2018-06-25T13:40:51.479Z,4.45
2018-06-25T13:43:20.584Z,5.43
2018-06-25T13:45:49.809Z,4.75
2018-06-25T13:48:18.979Z,5.87
2018-06-25T13:50:48.028Z,6.22
2018-06-25T13:53:17.164Z,5.72
2018-06-25T13:55:46.256Z,6.27
2018-06-25T13:58:15.365Z,8.60
2018-06-25T14:00:44.455Z,4.70
2018-06-25T14:03:13.553Z,5.30
2018-06-25T14:05:42.632Z,5.10
2018-06-25T14:08:11.749Z,5.13
2018-06-25T14:10:40.824Z,5.28
2018-06-25T14:13:10.017Z,4.65
2018-06-25T14:15:39.153Z,4.47
2018-06-25T14:18:08.270Z,4.30
2018-06-25T14:20:37.498Z,11.10
2018-06-25T14:23:07.248Z,4.80
2018-06-25T14:25:41.785Z,4.60
2018-06-25T14:28:16.477Z,3.98
2018-06-25T14:30:50.949Z,3.77
2018-06-25T14:34:23.432Z,4.20
2018-06-25T14:36:52.740Z,3.87
2018-06-25T14:39:21.837Z,4.27
2018-06-25T14:41:50.913Z,4.60
2018-06-25T14:44:20.041Z,5.30
2018-06-25T14:46:49.113Z,4.97
2018-06-25T14:49:18.254Z,5.70
2018-06-25T14:51:47.457Z,4.53
2018-06-25T14:54:16.698Z,5.20
2018-06-25T14:56:46.364Z,5.00
2018-06-25T14:59:15.658Z,4.53
2018-06-25T15:01:44.753Z,4.70
2018-06-25T15:04:13.869Z,5.20
2018-06-25T15:06:42.964Z,4.87
2018-06-25T15:09:13.082Z,4.03
2018-06-25T15:11:43.503Z,4.17
2018-06-25T15:14:13.516Z,4.43
2018-06-25T15:16:42.625Z,4.47
2018-06-25T15:19:11.772Z,4.47
2018-06-25T15:21:40.945Z,4.87
2018-06-25T15:24:10.039Z,5.25
2018-06-25T15:26:39.252Z,4.53
2018-06-25T15:29:08.332Z,4.40
2018-06-25T15:31:37.444Z,4.90
2018-06-25T15:34:06.611Z,4.87
2018-06-25T15:36:35.751Z,4.83
2018-06-25T15:39:07.998Z,4.60
2018-06-25T15:41:37.244Z,5.70
2018-06-25T15:44:06.336Z,4.37
2018-06-25T15:46:35.462Z,4.23
2018-06-25T15:49:04.577Z,4.77
2018-06-25T15:51:33.704Z,4.33
2018-06-25T15:54:02.793Z,4.07
2018-06-25T15:56:31.909Z,5.00
2018-06-25T15:59:01.092Z,4.45
2018-06-25T16:01:30.200Z,5.10
2018-06-25T16:03:59.429Z,4.40
2018-06-25T16:06:28.572Z,5.20
2018-06-25T16:08:57.645Z,5.37
2018-06-25T16:11:26.944Z,5.40
2018-06-25T16:13:56.021Z,4.93
2018-06-25T16:16:25.216Z,5.70
2018-06-25T16:18:54.320Z,5.25
2018-06-25T16:21:23.443Z,5.10
2018-06-25T16:23:53.288Z,4.77
2018-06-25T16:26:22.396Z,5.57
2018-06-25T16:28:51.560Z,5.10
2018-06-25T16:31:20.888Z,5.80
2018-06-25T16:33:49.996Z,5.47
2018-06-25T16:36:19.073Z,5.47
2018-06-25T16:38:48.291Z,4.90
2018-06-25T16:41:17.377Z,5.30
2018-06-25T16:43:46.471Z,4.40
2018-06-25T16:46:15.593Z,4.60
2018-06-25T16:48:44.753Z,4.20
2018-06-25T16:51:13.932Z,4.47
2018-06-25T16:53:43.063Z,5.07
2018-06-25T16:56:12.171Z,4.80
2018-06-25T16:58:41.288Z,4.28
2018-06-25T17:01:10.424Z,4.97
2018-06-25T17:03:39.525Z,4.40
2018-06-25T17:06:08.653Z,4.63
2018-06-25T17:08:37.752Z,4.43
2018-06-25T17:11:06.829Z,4.67
2018-06-25T17:13:36.646Z,3.65
2018-06-25T17:16:05.741Z,3.90
2018-06-25T17:18:35.652Z,3.93
2018-06-25T17:21:04.744Z,3.90
2018-06-25T17:23:34.282Z,4.40
2018-06-25T17:26:03.449Z,4.70
2018-06-25T17:28:32.504Z,4.47
2018-06-25T17:31:02.036Z,4.37
2018-06-25T17:33:31.142Z,22.97
2018-06-25T17:36:00.318Z,7.50
2018-06-25T17:38:29.460Z,4.42
2018-06-25T17:40:58.554Z,4.30
2018-06-25T17:43:27.677Z,4.20
2018-06-25T17:45:56.769Z,3.83
2018-06-25T17:48:26.092Z,5.00
2018-06-25T17:50:55.096Z,5.40
2018-06-25T17:53:24.321Z,5.83
2018-06-25T17:55:53.456Z,5.30
2018-06-25T17:58:22.613Z,6.22
2018-06-25T18:00:51.801Z,5.70
2018-06-25T18:03:21.636Z,4.53
2018-06-25T18:05:50.720Z,4.90
2018-06-25T18:08:19.983Z,5.07
2018-06-25T18:10:49.096Z,5.30
2018-06-25T18:13:18.177Z,4.37
2018-06-25T18:15:47.296Z,4.83
2018-06-25T18:18:16.388Z,5.07
2018-06-25T18:20:45.551Z,4.83
2018-06-25T18:23:14.588Z,4.17
2018-06-25T18:25:43.697Z,5.10
2018-06-25T18:28:13.579Z,4.80
2018-06-25T18:30:42.651Z,5.30
2018-06-25T18:33:11.752Z,4.33
2018-06-25T18:35:40.856Z,5.57
2018-06-25T18:38:10.021Z,5.10
2018-06-25T18:40:39.257Z,5.20
2018-06-25T18:43:08.332Z,6.40
2018-06-25T18:45:37.457Z,5.97
2018-06-25T18:48:06.924Z,5.60
2018-06-25T18:50:36.041Z,4.97
2018-06-25T18:53:05.904Z,5.45
2018-06-25T18:55:35.041Z,6.30
2018-06-25T18:58:05.089Z,5.57
2018-06-25T19:00:34.257Z,6.90
2018-06-25T19:03:03.437Z,7.07
2018-06-25T19:05:32.676Z,6.95
2018-06-25T19:08:01.821Z,6.00
2018-06-25T19:10:31.240Z,5.92
2018-06-25T19:13:00.623Z,5.42
2018-06-25T19:15:29.744Z,6.22
2018-06-25T19:17:58.823Z,5.20
2018-06-25T19:20:27.895Z,5.57
2018-06-25T19:22:56.996Z,5.67
2018-06-25T19:25:26.073Z,5.40
2018-06-25T19:27:55.184Z,5.65
2018-06-25T19:30:24.256Z,5.50
2018-06-25T19:32:53.388Z,5.80
2018-06-25T19:35:22.456Z,5.95
2018-06-25T19:37:51.560Z,6.03
2018-06-25T19:40:20.816Z,7.65
2018-06-25T19:42:50.520Z,6.50
2018-06-25T19:45:19.625Z,6.90
2018-06-25T19:47:48.728Z,6.23
2018-06-25T19:50:17.805Z,7.67
2018-06-25T19:52:46.928Z,5.63
2018-06-25T19:55:16.003Z,6.30
2018-06-25T19:57:45.101Z,6.87
2018-06-25T20:00:14.204Z,6.87
2018-06-25T20:02:43.391Z,6.23
2018-06-25T20:05:12.512Z,6.50
2018-06-25T20:07:42.513Z,6.40
2018-06-25T20:10:11.597Z,6.73
2018-06-25T20:12:40.699Z,7.30
2018-06-25T20:15:09.996Z,8.67
2018-06-25T20:17:39.036Z,7.10
2018-06-25T20:20:08.420Z,7.60
2018-06-25T20:22:37.545Z,7.87
2018-06-25T20:25:08.144Z,7.13
2018-06-25T20:27:37.342Z,7.00
2018-06-25T20:30:06.856Z,6.42
2018-06-25T20:32:36.175Z,6.93
2018-06-25T20:35:07.296Z,7.47
2018-06-25T20:37:36.395Z,6.70
2018-06-25T20:40:05.481Z,7.40
2018-06-25T20:42:34.576Z,7.33
2018-06-25T20:45:03.747Z,6.73
2018-06-25T20:47:32.840Z,7.87
2018-06-25T20:50:01.988Z,8.20
2018-06-25T20:52:31.185Z,8.18
2018-06-25T20:55:00.284Z,7.53
2018-06-25T20:57:29.478Z,7.70
2018-06-25T20:59:58.584Z,8.10
2018-06-25T21:02:27.668Z,7.77
2018-06-25T21:04:56.768Z,8.35
2018-06-25T21:07:25.923Z,9.83
2018-06-25T21:09:55.044Z,8.37
2018-06-25T21:12:24.145Z,7.40
2018-06-25T21:14:53.351Z,8.13
2018-06-25T21:17:22.521Z,9.10
2018-06-25T21:19:51.728Z,8.83
2018-06-25T21:22:20.812Z,8.40
2018-06-25T21:24:50.040Z,9.73
2018-06-25T21:27:19.168Z,9.40
2018-06-25T21:29:48.280Z,9.50
2018-06-25T21:32:17.386Z,8.90
2018-06-25T21:34:46.516Z,8.83
2018-06-25T21:37:15.596Z,8.80
2018-06-25T21:39:44.711Z,10.08
2018-06-25T21:42:13.864Z,10.77
2018-06-25T21:44:42.972Z,11.93
2018-06-25T21:47:12.085Z,10.43
2018-06-25T21:49:41.628Z,12.18
2018-06-25T21:52:10.746Z,11.47
2018-06-25T21:54:39.836Z,10.87
2018-06-25T21:57:08.931Z,10.67
2018-06-25T21:59:38.016Z,10.87
2018-06-25T22:02:07.145Z,10.48
2018-06-25T22:04:36.240Z,10.40
2018-06-25T22:07:05.341Z,10.37
2018-06-25T22:09:34.424Z,10.13
2018-06-25T22:12:03.533Z,10.90
2018-06-25T22:14:32.608Z,9.83
2018-06-25T22:17:01.750Z,11.80
2018-06-25T22:19:30.827Z,10.73
2018-06-25T22:21:59.945Z,10.43
2018-06-25T22:24:29.020Z,11.00
2018-06-25T22:26:58.135Z,10.30
2018-06-25T22:29:27.221Z,12.40
2018-06-25T22:31:56.329Z,10.97
2018-06-25T22:34:25.444Z,11.37
2018-06-25T22:36:54.515Z,10.10
2018-06-25T22:39:23.599Z,10.60
2018-06-25T22:41:52.709Z,10.63
2018-06-25T22:44:21.784Z,11.70
2018-06-25T22:46:50.888Z,10.37
2018-06-25T22:49:19.964Z,11.03
2018-06-25T22:51:49.096Z,10.77
2018-06-25T22:54:18.176Z,8.87
2018-06-25T22:56:47.317Z,9.60
2018-06-25T22:59:16.405Z,10.47
2018-06-25T23:01:45.548Z,10.80
2018-06-25T23:04:14.679Z,11.50
2018-06-25T23:06:43.825Z,10.27
2018-06-25T23:09:13.080Z,11.20
2018-06-25T23:11:42.190Z,10.90
2018-06-25T23:14:11.276Z,10.27
2018-06-25T23:16:40.393Z,11.93
2018-06-25T23:19:09.497Z,13.47
2018-06-25T23:21:38.586Z,12.40
2018-06-25T23:24:08.001Z,12.20
2018-06-25T23:26:37.726Z,12.60
2018-06-25T23:29:06.841Z,11.20
2018-06-25T23:31:35.937Z,11.30
2018-06-25T23:34:05.046Z,11.20
2018-06-25T23:36:34.139Z,10.30
2018-06-25T23:39:03.420Z,9.90
2018-06-25T23:41:32.509Z,12.43
2018-06-25T23:44:01.624Z,11.20
2018-06-25T23:46:30.765Z,10.63
2018-06-25T23:48:59.869Z,9.53
2018-06-25T23:51:28.951Z,10.33
2018-06-25T23:53:58.076Z,9.90
2018-06-25T23:56:27.165Z,10.20
2018-06-25T23:58:56.276Z,9.57
